createdAt,value
2022-12-17T00:03:59.150Z,234.97
2022-12-17T00:09:24.618Z,226.10
2022-12-17T00:14:49.940Z,203.27
2022-12-17T00:20:16.258Z,225.97
2022-12-17T00:25:44.621Z,210.93
2022-12-17T00:31:12.710Z,273.80
2022-12-17T00:36:38.147Z,225.20
2022-12-17T00:42:04.091Z,237.47
2022-12-17T00:47:29.667Z,266.27
2022-12-17T00:52:54.931Z,231.20
2022-12-17T00:58:22.207Z,280.00
2022-12-17T01:03:47.668Z,251.57
2022-12-17T01:09:13.542Z,233.90
2022-12-17T01:14:38.730Z,261.67
2022-12-17T01:20:04.405Z,197.57
2022-12-17T01:25:30.239Z,241.70
2022-12-17T01:30:56.892Z,248.10
2022-12-17T01:36:23.269Z,231.20
2022-12-17T01:41:48.812Z,219.97
2022-12-17T01:47:14.124Z,177.47
2022-12-17T01:52:39.845Z,241.57
2022-12-17T01:58:06.470Z,212.60
2022-12-17T02:03:36.777Z,218.03
2022-12-17T02:09:04.352Z,231.63
2022-12-17T02:14:50.695Z,247.53
2022-12-17T02:20:28.363Z,186.03
2022-12-17T02:26:10.187Z,254.83
2022-12-17T02:31:35.876Z,231.53
2022-12-17T02:37:01.490Z,243.73
2022-12-17T02:42:28.162Z,218.10
2022-12-17T02:53:19.079Z,199.90
2022-12-17T02:58:45.536Z,238.47
2022-12-17T03:04:12.418Z,264.97
2022-12-17T03:09:37.798Z,247.82
2022-12-17T03:15:03.456Z,234.73
2022-12-17T03:20:29.800Z,235.70
2022-12-17T03:25:56.875Z,238.50
2022-12-17T03:31:23.569Z,235.43
2022-12-17T03:36:50.991Z,235.93
2022-12-17T03:47:42.330Z,237.50
2022-12-17T03:53:07.632Z,261.70
2022-12-17T03:58:33.886Z,219.43
2022-12-17T04:03:59.303Z,295.17
2022-12-17T04:09:24.909Z,318.17
2022-12-17T04:14:50.977Z,233.80
2022-12-17T04:20:17.210Z,227.03
2022-12-17T04:25:42.727Z,239.67
2022-12-17T04:31:08.210Z,247.47
2022-12-17T04:36:35.554Z,246.07
2022-12-17T04:42:02.568Z,236.30
2022-12-17T04:47:28.445Z,227.43
2022-12-17T04:52:53.888Z,214.93
2022-12-17T04:58:25.785Z,260.20
2022-12-17T05:03:52.561Z,231.30
2022-12-17T05:09:17.729Z,216.85
2022-12-17T05:14:43.965Z,208.10
2022-12-17T05:20:11.493Z,228.77
2022-12-17T05:25:38.325Z,213.50
2022-12-17T05:31:12.061Z,213.83
2022-12-17T05:36:37.914Z,236.00
2022-12-17T05:42:03.642Z,198.03
2022-12-17T05:47:29.509Z,197.87
2022-12-17T05:52:55.152Z,197.00
2022-12-17T05:58:28.592Z,204.20
2022-12-17T06:03:54.505Z,246.60
2022-12-17T06:09:20.189Z,219.97
2022-12-17T06:14:45.995Z,198.10
2022-12-17T06:20:11.605Z,199.93
2022-12-17T06:25:37.525Z,237.37
2022-12-17T06:31:04.955Z,221.43
2022-12-17T06:36:31.140Z,202.20
2022-12-17T06:42:04.229Z,202.97
2022-12-17T06:47:25.294Z,194.37
2022-12-17T06:52:50.872Z,183.50
2022-12-17T06:58:18.284Z,195.17
2022-12-17T07:03:44.009Z,197.80
2022-12-17T07:09:09.536Z,176.50
2022-12-17T07:14:36.654Z,208.85
2022-12-17T07:20:02.697Z,198.23
2022-12-17T07:25:27.651Z,210.43
2022-12-17T07:30:55.877Z,181.27
2022-12-17T07:36:20.629Z,182.70
2022-12-17T07:41:45.797Z,164.10
2022-12-17T07:47:12.158Z,168.03
2022-12-17T07:52:39.255Z,171.40
2022-12-17T07:58:04.882Z,194.35
2022-12-17T08:03:30.230Z,199.73
2022-12-17T08:08:56.064Z,184.77
2022-12-17T08:14:21.443Z,181.40
2022-12-17T08:19:46.953Z,166.83
2022-12-17T08:25:16.850Z,194.40
2022-12-17T08:30:42.755Z,173.63
2022-12-17T08:36:14.342Z,215.47
2022-12-17T08:41:40.602Z,188.60
2022-12-17T08:47:06.169Z,175.47
2022-12-17T08:52:31.601Z,201.47
2022-12-17T08:57:57.626Z,189.43
2022-12-17T09:03:23.300Z,159.63
2022-12-17T09:08:49.897Z,176.67
2022-12-17T09:14:15.768Z,151.40
2022-12-17T09:19:36.847Z,147.90
2022-12-17T09:25:02.136Z,138.07
2022-12-17T09:30:28.479Z,129.23
2022-12-17T09:35:55.743Z,136.27
2022-12-17T09:47:07.862Z,132.25
2022-12-17T09:52:47.020Z,147.17
2022-12-17T09:58:13.254Z,115.50
2022-12-17T10:03:42.616Z,161.03
2022-12-17T10:09:11.945Z,134.25
2022-12-17T10:14:41.583Z,137.77
2022-12-17T10:20:10.666Z,124.57
2022-12-17T10:25:38.889Z,130.50
2022-12-17T10:31:04.856Z,138.80
2022-12-17T10:36:40.998Z,114.17
2022-12-17T10:42:06.253Z,119.20
2022-12-17T10:47:36.876Z,110.43
2022-12-17T10:53:04.000Z,106.27
2022-12-17T10:58:38.686Z,114.93
2022-12-17T11:04:12.619Z,118.63
2022-12-17T11:09:50.520Z,110.50
2022-12-17T11:15:04.436Z,119.40
2022-12-17T11:20:42.874Z,115.30
2022-12-17T11:26:29.002Z,110.87
2022-12-17T11:32:40.778Z,111.37
2022-12-17T11:38:16.787Z,116.90
2022-12-17T11:44:04.609Z,114.17
2022-12-17T11:55:18.362Z,104.65
2022-12-17T12:00:44.482Z,129.10
2022-12-17T12:06:17.190Z,127.57
2022-12-17T12:11:52.307Z,130.90
2022-12-17T12:17:30.748Z,125.87
2022-12-17T12:23:05.176Z,133.53
2022-12-17T12:28:37.211Z,145.00
2022-12-17T12:34:09.194Z,145.77
2022-12-17T12:39:38.933Z,135.67
2022-12-17T12:45:23.079Z,142.33
2022-12-17T12:50:51.942Z,128.43
2022-12-17T12:56:19.560Z,142.00
2022-12-17T13:01:54.711Z,154.80
2022-12-17T13:07:02.985Z,134.07
2022-12-17T13:12:13.853Z,130.80
2022-12-17T13:17:33.363Z,137.73
2022-12-17T13:22:45.136Z,131.07
2022-12-17T13:27:52.937Z,138.23
2022-12-17T13:33:26.088Z,132.27
2022-12-17T13:39:06.485Z,136.90
2022-12-17T13:44:19.290Z,130.73
2022-12-17T13:49:29.376Z,148.00
2022-12-17T13:54:37.127Z,148.53
2022-12-17T13:59:54.021Z,135.43
2022-12-17T14:05:07.667Z,136.20
2022-12-17T14:10:19.616Z,131.80
2022-12-17T14:15:32.422Z,107.63
2022-12-17T14:20:40.695Z,133.70
2022-12-17T14:25:49.733Z,117.70
2022-12-17T14:36:25.873Z,138.77
2022-12-17T14:41:55.703Z,119.02
2022-12-17T14:47:26.286Z,110.97
2022-12-17T14:52:44.837Z,118.40
2022-12-17T14:57:53.349Z,114.27
2022-12-17T15:03:02.331Z,123.50
2022-12-17T15:08:11.583Z,112.90
2022-12-17T15:13:21.708Z,109.53
2022-12-17T15:18:29.928Z,107.73
2022-12-17T15:23:40.571Z,76.30
2022-12-17T15:28:49.161Z,97.03
2022-12-17T15:34:01.325Z,121.63
2022-12-17T15:39:10.174Z,82.77
2022-12-17T15:44:19.079Z,80.63
2022-12-17T15:49:26.593Z,98.33
2022-12-17T15:54:34.090Z,109.10
2022-12-17T15:59:41.535Z,99.67
2022-12-17T16:04:49.321Z,90.83
2022-12-17T16:10:04.554Z,98.03
2022-12-17T16:15:07.098Z,104.83
2022-12-17T16:20:17.661Z,85.37
2022-12-17T16:25:25.081Z,103.20
2022-12-17T16:30:32.898Z,82.17
2022-12-17T16:35:40.523Z,89.07
2022-12-17T16:40:48.714Z,98.37
2022-12-17T16:45:56.665Z,93.20
2022-12-17T16:51:04.357Z,85.30
2022-12-17T16:56:16.924Z,77.50
2022-12-17T17:01:28.508Z,81.27
2022-12-17T17:06:51.508Z,94.43
2022-12-17T17:12:09.915Z,91.43
2022-12-17T17:17:54.375Z,100.72
2022-12-17T17:22:36.091Z,79.27
2022-12-17T17:27:50.477Z,105.60
2022-12-17T17:32:59.656Z,86.10
2022-12-17T17:38:09.157Z,82.20
2022-12-17T17:43:19.119Z,75.80
2022-12-17T17:48:26.669Z,90.27
2022-12-17T17:53:35.702Z,91.43
2022-12-17T17:58:51.277Z,79.33
2022-12-17T18:04:01.135Z,74.07
2022-12-17T18:09:09.641Z,73.97
2022-12-17T18:14:19.029Z,93.30
2022-12-17T18:19:26.789Z,89.97
2022-12-17T18:24:34.471Z,87.03
2022-12-17T18:29:44.118Z,85.90
2022-12-17T18:34:52.348Z,74.40
2022-12-17T18:40:01.072Z,80.83
2022-12-17T18:45:09.600Z,83.60
2022-12-17T18:50:17.703Z,80.40
2022-12-17T18:55:28.415Z,83.43
2022-12-17T19:00:37.232Z,71.20
2022-12-17T19:05:51.311Z,73.93
2022-12-17T19:10:58.486Z,71.03
2022-12-17T19:16:15.774Z,79.53
2022-12-17T19:21:24.385Z,52.20
2022-12-17T19:26:37.470Z,81.83
2022-12-17T19:31:45.969Z,78.97
2022-12-17T19:36:54.155Z,73.47
2022-12-17T19:42:01.889Z,71.73
2022-12-17T19:47:11.107Z,69.40
2022-12-17T19:52:22.103Z,86.30
2022-12-17T19:57:32.717Z,77.07
2022-12-17T20:02:40.859Z,72.67
2022-12-17T20:07:50.202Z,74.17
2022-12-17T20:12:58.548Z,59.40
2022-12-17T20:18:07.607Z,50.00
2022-12-17T20:23:15.299Z,64.10
2022-12-17T20:28:24.923Z,63.57
2022-12-17T20:33:33.883Z,62.03
2022-12-17T20:38:42.765Z,58.63
2022-12-17T20:43:50.433Z,68.00
2022-12-17T20:49:03.686Z,74.97
2022-12-17T20:54:13.863Z,72.87
2022-12-17T20:59:23.051Z,55.27
2022-12-17T21:04:32.098Z,56.37
2022-12-17T21:09:40.047Z,64.83
2022-12-17T21:14:48.360Z,61.60
2022-12-17T21:20:00.321Z,75.53
2022-12-17T21:25:06.885Z,61.67
2022-12-17T21:30:16.417Z,75.43
2022-12-17T21:35:24.842Z,69.63
2022-12-17T21:40:34.878Z,64.60
2022-12-17T21:45:43.829Z,62.53
2022-12-17T21:50:51.305Z,56.07
2022-12-17T21:56:07.452Z,62.27
2022-12-17T22:01:19.723Z,69.47
2022-12-17T22:06:32.537Z,70.17
2022-12-17T22:11:40.157Z,73.93
2022-12-17T22:16:49.953Z,72.17
2022-12-17T22:21:58.931Z,88.30
2022-12-17T22:27:09.298Z,87.07
2022-12-17T22:32:34.644Z,86.03
2022-12-17T22:40:30.854Z,102.33
2022-12-17T22:44:46.467Z,103.17
2022-12-17T22:48:22.371Z,91.63
2022-12-17T22:53:31.010Z,92.47
2022-12-17T22:58:40.627Z,82.83
2022-12-17T23:03:49.503Z,67.83
2022-12-17T23:08:57.988Z,75.23
2022-12-17T23:14:07.137Z,68.93
2022-12-17T23:19:18.646Z,72.30
2022-12-17T23:24:26.862Z,75.67
2022-12-17T23:29:34.363Z,66.40
2022-12-17T23:34:42.104Z,65.13
2022-12-17T23:39:50.016Z,69.33
2022-12-17T23:44:57.436Z,74.93
2022-12-17T23:50:05.397Z,67.93
2022-12-17T23:55:13.082Z,68.53
